Aérodrome :
LOGIN :

S'inscrire | Disclaimer

   EN    FR    IT 

 










Légende :    VFR   VFR Marginal   IFR   IFR Intensif   IFR Très Intensif
Visi : 
Plafond : 
>= 8 km
>= 3000ft
5 à 8 km
1000 à 3000 ft
1500m à 5 km
500 à 1000 ft
800 à 1500m
200 à 500 ft
< 800m
< 200 ft
Symboles :   Orages  Brouillard  Fortes neiges  Fortes précipitations  Vent > 20 kt
SIGMETs :   Divers  Orages  Givrage  Turbulence  Onde Orograph.  Cendres Volcan.







- Altitude de l'aérodrome : 1411 ft
- Code IATA : GVA


LSGG - Genève Cointrin

DERNIER METAR :
  • 152220Z 03001KT 1800 SN VV008 01/M02 Q1018 BECMG 0800 VV003

METARs EXPIRÉS :
  • 152150Z VRB01KT 5000 -SN SCT015 BKN030 01/M03 Q1019 BECMG 2500 SN BKN015
  • 152120Z VRB01KT 9000 SCT025 BKN050 01/M03 Q1019 BECMG 2500 SN BKN015
  • 152050Z VRB01KT 9999 SCT030 BKN060 01/M02 Q1019 BECMG 2500 SN BKN015
  • 152020Z VRB02KT 9000 SCT035 BKN060 01/M03 Q1019 BECMG 2500 SN BKN015
  • 151950Z 01002KT 9999 FEW035 BKN070 01/M03 Q1019 NOSIG

TAF TAF LSGG
Valide du 15 à 21h jusqu'au 17 à 03h UTC


152025Z 1521/1703 VRB02KT 9999 FEW030 BKN090 TX05/1615Z TN00/1602Z
BECMG 1521/1523 2500 -SN
TEMPO 1521/1601 1200 VV004
BECMG 1600/1602 RASN OVC014
BECMG 1604/1607 23007KT 6000 -RA BKN020
BECMG 1613/1616 VRB02KT
TEMPO 1618/1624 SHRA
ATIS : +41 22 417 40 81
Pas de NOTAMs connus pour ce terrain.



MET'MAP, la Météo Aéronautique d'un coup d'oeil ! - Copyright ORBIFLY Décembre 2007 - Disclaimer

ORBIFLY MET'MAP TEAM :

Programmation & Développement : Alexandra Zaïnal
Conception & Développement : Baudouin d'Aumeries
Co-Programmation & Développement : Marc-Olivier Méhu
Soutien technique & logistique : Manuel Goepfert

Contact : metmap@orbifly.com




SOURCES & CREDITS :

   NOAA